Time;durP1;ratioP1;P1;durP2;ratioP2;P2;SDS_P1;SDS_P2;PMS_P1;PMS_P2;Temp;Humidity;BMP_temperature;BMP_pressure;BME280_temperature;BME280_humidity;BME280_pressure;Samples;Min_cycle;Max_cycle;Signal;HPM_P1;HPM_P2
2021/06/05 00:02:18;;;;;;;12.43;5.28;;;;;;;10.48;79.89;100464.19;4840009;29;20584;-72
2021/06/05 00:04:44;;;;;;;12.23;5.35;;;;;;;10.40;79.90;100476.91;4841693;29;20117;-72
2021/06/05 00:07:10;;;;;;;12.52;5.18;;;;;;;10.47;79.62;100471.47;4842537;29;20073;-72
2021/06/05 00:09:35;;;;;;;7.57;4.65;;;;;;;10.47;79.18;100482.22;4842396;29;20434;-72
2021/06/05 00:12:01;;;;;;;10.45;4.85;;;;;;;10.33;79.70;100475.31;4503844;29;10000092;-73
2021/06/05 00:14:27;;;;;;;8.20;4.35;;;;;;;10.23;80.63;100487.41;4841622;29;20033;-72
2021/06/05 00:16:53;;;;;;;13.30;5.13;;;;;;;10.36;80.27;100478.34;4841041;29;20042;-72
2021/06/05 00:19:19;;;;;;;12.38;5.32;;;;;;;10.44;79.73;100479.16;4841981;29;20477;-72
2021/06/05 00:21:46;;;;;;;14.88;5.28;;;;;;;10.48;79.95;100483.03;4840688;29;20071;-72
2021/06/05 00:24:12;;;;;;;13.63;5.30;;;;;;;10.48;79.35;100472.25;4834600;29;20094;-72
2021/06/05 00:26:38;;;;;;;12.10;5.22;;;;;;;10.52;79.42;100476.16;4844831;29;20042;-72
2021/06/05 00:29:05;;;;;;;16.63;4.93;;;;;;;10.46;79.88;100472.50;4842786;29;20431;-73
2021/06/05 00:31:31;;;;;;;14.02;4.65;;;;;;;10.40;79.69;100474.19;4841222;29;20086;-72
2021/06/05 00:33:57;;;;;;;10.60;4.72;;;;;;;10.46;80.15;100472.50;4841950;29;20038;-72
2021/06/05 00:36:24;;;;;;;12.00;4.30;;;;;;;10.45;79.81;100470.00;4841182;29;20062;-72
2021/06/05 00:38:49;;;;;;;9.25;4.38;;;;;;;10.45;79.72;100470.00;4840882;29;20117;-72
2021/06/05 00:41:17;;;;;;;12.30;4.40;;;;;;;10.36;79.40;100464.91;4843163;29;20113;-73
2021/06/05 00:43:47;;;;;;;9.55;4.00;;;;;;;10.19;80.07;100463.81;4836700;29;20038;-72
2021/06/05 00:46:15;;;;;;;11.07;4.38;;;;;;;10.02;80.70;100463.59;4845001;29;20034;-72
2021/06/05 00:48:41;;;;;;;10.25;4.95;;;;;;;9.88;81.39;100465.56;4840413;29;20041;-73
2021/06/05 00:51:07;;;;;;;13.48;4.63;;;;;;;9.81;81.30;100460.25;4840482;29;20038;-72
2021/06/05 00:53:35;;;;;;;10.75;4.43;;;;;;;9.85;81.18;100458.78;4838130;29;20027;-72
2021/06/05 00:56:05;;;;;;;10.18;4.60;;;;;;;9.84;80.96;100458.97;4836892;29;20045;-71
2021/06/05 00:58:31;;;;;;;11.13;4.80;;;;;;;9.70;82.20;100453.72;4837927;29;20053;-72
2021/06/05 01:01:18;;;;;;;5.45;4.40;;;;;;;9.55;82.33;100454.00;4841489;29;20489;-73
2021/06/05 01:03:45;;;;;;;8.07;4.28;;;;;;;9.46;82.58;100447.25;4838739;29;20036;-72
2021/06/05 01:06:27;;;;;;;9.27;4.65;;;;;;;9.45;82.69;100445.59;4840266;29;20564;-72
2021/06/05 01:09:02;;;;;;;9.88;4.80;;;;;;;9.41;82.57;100444.41;4838911;29;20183;-72
2021/06/05 01:11:28;;;;;;;13.52;5.38;;;;;;;9.47;82.61;100447.06;4841648;29;20046;-72
2021/06/05 01:13:59;;;;;;;10.23;5.15;;;;;;;9.38;83.38;100448.34;4839333;29;20038;-72
2021/06/05 01:16:27;;;;;;;9.90;5.40;;;;;;;9.28;83.87;100454.19;4841949;29;20041;-72
2021/06/05 01:18:58;;;;;;;16.92;6.70;;;;;;;9.18;84.96;100446.63;4840053;29;20341;-72
2021/06/05 01:21:40;;;;;;;16.60;6.80;;;;;;;9.17;83.99;100442.28;4841298;29;20041;-72
2021/06/05 01:24:17;;;;;;;13.95;6.78;;;;;;;9.14;85.11;100449.94;4838866;29;20065;-72
2021/06/05 01:26:53;;;;;;;16.60;6.15;;;;;;;9.16;84.45;100440.63;4840175;29;20048;-72
2021/06/05 01:29:22;;;;;;;11.05;5.63;;;;;;;9.24;83.89;100434.16;4838968;29;20045;-72
2021/06/05 01:31:55;;;;;;;16.85;6.40;;;;;;;9.28;84.27;100445.31;4840881;29;20282;-72
2021/06/05 01:34:22;;;;;;;12.27;5.78;;;;;;;9.29;83.00;100445.09;4838429;29;20105;-72
2021/06/05 01:36:52;;;;;;;10.00;5.30;;;;;;;9.28;82.62;100442.63;4839333;29;20070;-71
2021/06/05 01:39:31;;;;;;;13.35;6.10;;;;;;;9.26;83.32;100442.03;4838135;29;20724;-71
2021/06/05 01:42:00;;;;;;;15.48;6.05;;;;;;;9.17;83.63;100438.75;4834841;29;20062;-71
2021/06/05 01:44:29;;;;;;;15.23;7.00;;;;;;;9.11;83.51;100443.16;4818498;29;20186;-73
2021/06/05 01:46:56;;;;;;;12.45;6.10;;;;;;;9.00;84.09;100444.63;4838267;29;20045;-72
2021/06/05 01:49:22;;;;;;;11.43;6.20;;;;;;;8.98;84.45;100440.53;4854805;29;20038;-72
2021/06/05 01:51:54;;;;;;;14.52;6.00;;;;;;;8.98;84.65;100435.16;4848963;29;20029;-72
2021/06/05 01:54:54;;;;;;;12.02;6.47;;;;;;;8.92;84.93;100443.03;4842802;29;20085;-72
2021/06/05 01:57:24;;;;;;;13.95;6.40;;;;;;;8.87;85.09;100439.34;4831062;29;20046;-72
2021/06/05 01:59:50;;;;;;;15.65;6.43;;;;;;;8.83;85.38;100441.59;4827574;29;20075;-72
2021/06/05 02:02:16;;;;;;;11.88;6.47;;;;;;;8.81;85.31;100442.88;4828212;29;20030;-72
2021/06/05 02:04:42;;;;;;;11.18;5.72;;;;;;;8.79;85.53;100441.22;4840549;29;20476;-72
2021/06/05 02:07:08;;;;;;;23.60;6.47;;;;;;;8.78;85.88;100439.56;4839562;29;20042;-71
2021/06/05 02:09:34;;;;;;;11.98;6.28;;;;;;;8.76;84.94;100433.59;4832331;29;20034;-71
2021/06/05 02:12:20;;;;;;;14.13;6.18;;;;;;;8.77;85.42;100434.41;4837221;29;20062;-71
2021/06/05 02:14:56;;;;;;;15.88;6.53;;;;;;;8.75;85.23;100429.25;4840614;29;20038;-71
2021/06/05 02:17:23;;;;;;;9.65;6.15;;;;;;;8.70;85.12;100423.72;4846565;29;20449;-71
2021/06/05 02:19:56;;;;;;;16.02;7.13;;;;;;;8.61;85.36;100428.47;4833993;29;20038;-70
2021/06/05 02:22:26;;;;;;;12.15;6.20;;;;;;;8.50;85.27;100429.13;4841271;29;20037;-70
2021/06/05 02:24:57;;;;;;;11.95;6.80;;;;;;;8.50;86.34;100423.78;4839118;29;20100;-71
2021/06/05 02:27:26;;;;;;;13.73;6.25;;;;;;;8.48;85.93;100423.13;4844887;29;20034;-70
2021/06/05 02:29:54;;;;;;;17.35;6.65;;;;;;;8.45;85.97;100421.72;4839123;29;20038;-71
2021/06/05 02:32:27;;;;;;;15.00;6.57;;;;;;;8.42;86.10;100426.66;4837486;29;20033;-72
2021/06/05 02:34:55;;;;;;;10.68;6.38;;;;;;;8.35;86.13;100426.69;4846374;29;20513;-71
2021/06/05 02:37:24;;;;;;;13.70;6.35;;;;;;;8.42;85.65;100429.34;4841652;29;20037;-71
2021/06/05 02:39:59;;;;;;;12.80;6.25;;;;;;;8.47;86.48;100421.47;4839991;29;20029;-70
2021/06/05 02:42:26;;;;;;;13.30;7.18;;;;;;;8.56;86.28;100417.56;4844739;29;20117;-70
2021/06/05 02:44:55;;;;;;;13.55;6.53;;;;;;;8.62;86.78;100424.75;4843910;29;20144;-71
2021/06/05 02:47:23;;;;;;;12.20;6.18;;;;;;;8.49;85.54;100420.28;4845838;29;20042;-70
2021/06/05 02:49:50;;;;;;;8.88;5.80;;;;;;;8.38;85.26;100422.75;4822508;29;20511;-71
2021/06/05 02:52:31;;;;;;;10.45;5.78;;;;;;;8.20;85.98;100417.03;4844854;29;20042;-71
2021/06/05 02:55:01;;;;;;;15.30;7.30;;;;;;;8.31;86.92;100420.09;4840661;29;20113;-71
2021/06/05 02:57:28;;;;;;;11.57;7.03;;;;;;;8.33;86.54;100418.03;4848791;29;20041;-71
2021/06/05 02:59:54;;;;;;;11.90;6.32;;;;;;;8.31;85.39;100420.91;4822093;29;20440;-71
2021/06/05 03:02:19;;;;;;;19.80;7.72;;;;;;;8.37;86.40;100416.56;4838126;29;20072;-71
2021/06/05 03:04:45;;;;;;;12.35;6.85;;;;;;;8.25;85.90;100426.31;4835154;29;20049;-71
2021/06/05 03:07:11;;;;;;;16.60;7.45;;;;;;;8.21;86.89;100425.88;4829981;29;20350;-71
2021/06/05 03:09:37;;;;;;;13.35;6.50;;;;;;;8.21;86.27;100425.88;4838173;29;20094;-71
2021/06/05 03:12:06;;;;;;;11.15;6.75;;;;;;;8.29;87.18;100433.72;4839556;29;20042;-70
2021/06/05 03:14:32;;;;;;;10.48;6.38;;;;;;;8.15;85.98;100432.09;4837120;29;20037;-71
2021/06/05 03:16:58;;;;;;;12.77;6.93;;;;;;;8.09;86.55;100433.78;4821511;29;20052;-72
2021/06/05 03:19:25;;;;;;;14.30;7.30;;;;;;;8.22;87.54;100437.47;4836227;29;20038;-72
2021/06/05 03:21:51;;;;;;;18.00;7.28;;;;;;;8.24;86.84;100436.19;4826457;29;20042;-72
2021/06/05 03:24:16;;;;;;;12.93;6.63;;;;;;;8.16;86.06;100428.38;4823187;29;20048;-71
2021/06/05 03:26:42;;;;;;;12.93;6.50;;;;;;;8.17;87.55;100428.19;4830581;29;20041;-71
2021/06/05 03:29:08;;;;;;;18.30;7.25;;;;;;;8.21;87.59;100433.94;4840603;29;20045;-71
2021/06/05 03:31:34;;;;;;;13.32;6.70;;;;;;;8.12;86.42;100429.84;4834755;29;20046;-71
2021/06/05 03:34:00;;;;;;;13.20;6.35;;;;;;;7.99;86.93;100434.19;4843534;29;20132;-71
2021/06/05 03:36:26;;;;;;;12.20;6.05;;;;;;;8.01;86.60;100429.44;4828103;29;20161;-71
2021/06/05 03:38:52;;;;;;;16.52;7.18;;;;;;;7.93;87.41;100437.69;4840230;29;20050;-71
2021/06/05 03:41:18;;;;;;;12.30;6.57;;;;;;;7.90;87.38;100433.56;4842813;29;20040;-71
2021/06/05 03:43:45;;;;;;;13.93;7.57;;;;;;;7.87;87.91;100433.16;4827926;29;20026;-71
2021/06/05 03:46:10;;;;;;;11.90;6.82;;;;;;;7.85;87.89;100433.34;4833716;29;20068;-72
2021/06/05 03:48:38;;;;;;;11.13;6.78;;;;;;;7.82;88.10;100435.66;4824104;29;20063;-71
2021/06/05 03:51:05;;;;;;;16.00;6.85;;;;;;;7.84;87.71;100426.34;4841016;29;20090;-71
2021/06/05 03:53:31;;;;;;;13.45;6.63;;;;;;;7.84;87.90;100437.06;4830583;29;20035;-71
2021/06/05 03:55:58;;;;;;;14.77;7.03;;;;;;;7.82;87.53;100444.50;4831091;29;20038;-71
2021/06/05 03:58:25;;;;;;;13.90;6.90;;;;;;;7.84;87.64;100433.59;4829820;29;20548;-71
2021/06/05 04:00:51;;;;;;;13.73;7.15;;;;;;;7.86;87.96;100444.94;4825507;29;20080;-71
2021/06/05 04:03:16;;;;;;;12.25;6.97;;;;;;;7.81;87.93;100442.84;4849873;29;20117;-71
2021/06/05 04:05:42;;;;;;;12.52;7.00;;;;;;;7.77;87.97;100444.28;4848431;29;20411;-71
2021/06/05 04:08:10;;;;;;;24.75;7.43;;;;;;;7.82;87.92;100449.06;4843029;29;20038;-71
2021/06/05 04:10:36;;;;;;;15.10;7.55;;;;;;;7.85;87.83;100444.09;4838724;29;20105;-71
2021/06/05 04:13:03;;;;;;;14.27;7.30;;;;;;;7.86;87.62;100447.59;4839660;29;20507;-71
2021/06/05 04:15:30;;;;;;;12.57;7.93;;;;;;;7.84;88.25;100455.84;4842352;29;20083;-71
2021/06/05 04:18:04;;;;;;;15.18;7.50;;;;;;;7.91;88.24;100440.56;4837969;29;20129;-71
2021/06/05 04:20:30;;;;;;;12.13;7.40;;;;;;;8.00;87.23;100435.84;4841830;29;20094;-71
2021/06/05 04:22:56;;;;;;;10.40;6.43;;;;;;;8.03;87.02;100446.16;4847110;29;20038;-71
2021/06/05 04:25:23;;;;;;;10.77;6.88;;;;;;;8.06;86.83;100443.06;4841217;29;20428;-71
2021/06/05 04:27:49;;;;;;;13.23;6.88;;;;;;;8.11;87.19;100436.22;4839302;29;20037;-71
2021/06/05 04:30:16;;;;;;;13.02;7.07;;;;;;;8.14;86.96;100439.34;4840511;29;20034;-71
2021/06/05 04:32:43;;;;;;;17.60;7.22;;;;;;;8.33;86.71;100440.31;4847061;29;20384;-71
2021/06/05 04:35:09;;;;;;;18.05;6.88;;;;;;;8.41;86.81;100431.22;4843002;29;20041;-71
2021/06/05 04:37:35;;;;;;;12.27;6.63;;;;;;;8.46;86.10;100433.25;4838188;29;20030;-71
2021/06/05 04:40:04;;;;;;;11.40;6.03;;;;;;;8.49;85.54;100422.97;4842160;29;20030;-71
2021/06/05 04:42:29;;;;;;;11.23;6.00;;;;;;;8.46;86.09;100433.25;4843173;29;20046;-71
2021/06/05 04:44:55;;;;;;;12.45;6.50;;;;;;;8.46;86.30;100438.63;4839916;29;20038;-71
2021/06/05 04:47:20;;;;;;;14.10;6.30;;;;;;;8.55;86.16;100434.69;4847841;29;20548;-71
2021/06/05 04:49:46;;;;;;;15.55;6.70;;;;;;;8.66;86.48;100437.75;4833971;29;21599;-71
2021/06/05 04:52:11;;;;;;;13.88;6.25;;;;;;;8.74;86.08;100440.19;4860615;29;20041;-71
2021/06/05 04:54:37;;;;;;;10.68;6.25;;;;;;;8.84;85.00;100434.38;4839121;29;20118;-71
2021/06/05 04:57:03;;;;;;;13.80;6.13;;;;;;;8.96;85.31;100434.56;4849547;29;20491;-71
2021/06/05 04:59:29;;;;;;;12.40;6.05;;;;;;;9.05;84.95;100431.38;4835671;29;20060;-71
2021/06/05 05:01:56;;;;;;;13.32;6.00;;;;;;;9.18;84.46;100440.41;4833445;29;20030;-71
2021/06/05 05:04:22;;;;;;;14.40;6.50;;;;;;;9.22;84.19;100431.72;4831938;29;20086;-71
2021/06/05 05:06:48;;;;;;;13.75;6.25;;;;;;;9.35;83.97;100436.16;4830831;29;20117;-71
2021/06/05 05:09:15;;;;;;;10.85;5.80;;;;;;;9.51;83.94;100436.66;4833374;29;20108;-70
2021/06/05 05:11:42;;;;;;;17.83;6.13;;;;;;;9.71;83.09;100433.84;4834181;29;20035;-72
2021/06/05 05:14:10;;;;;;;9.45;5.40;;;;;;;10.30;81.07;100432.66;4828403;29;20034;-71
2021/06/05 05:16:35;;;;;;;12.20;5.35;;;;;;;10.53;79.29;100438.25;4814232;29;20137;-72
2021/06/05 05:19:02;;;;;;;14.00;5.05;;;;;;;10.68;79.14;100442.41;4842900;29;20125;-72
2021/06/05 05:21:28;;;;;;;13.05;5.10;;;;;;;10.96;77.66;100432.94;4840025;29;20040;-71
2021/06/05 05:23:54;;;;;;;14.25;4.78;;;;;;;11.12;77.05;100435.00;4842833;29;20045;-71
2021/06/05 05:26:21;;;;;;;10.00;4.35;;;;;;;11.46;76.47;100441.75;4830703;29;20437;-70
2021/06/05 05:28:49;;;;;;;10.60;4.65;;;;;;;11.74;74.85;100443.00;4837584;29;20113;-71
2021/06/05 05:31:18;;;;;;;8.02;4.32;;;;;;;11.92;74.21;100444.78;4837152;29;20049;-71
2021/06/05 05:33:44;;;;;;;10.07;5.13;;;;;;;12.13;73.87;100449.63;4843966;29;20042;-71
2021/06/05 05:36:13;;;;;;;8.45;4.18;;;;;;;12.54;72.01;100449.69;4827224;29;20052;-71
2021/06/05 05:38:40;;;;;;;16.42;4.00;;;;;;;12.37;73.55;100448.78;4837357;29;20042;-71
2021/06/05 05:41:07;;;;;;;7.78;3.70;;;;;;;12.49;73.17;100441.47;4833021;29;20039;-71
2021/06/05 05:43:32;;;;;;;7.32;4.22;;;;;;;12.84;72.08;100450.56;4839008;29;20082;-71
2021/06/05 05:45:58;;;;;;;9.73;4.28;;;;;;;13.15;71.27;100449.25;4836287;29;20038;-71
2021/06/05 05:48:25;;;;;;;13.35;3.95;;;;;;;13.49;70.07;100439.59;4832969;29;20086;-71
2021/06/05 05:50:50;;;;;;;11.20;3.78;;;;;;;13.72;69.45;100449.44;4851211;29;20046;-71
2021/06/05 05:53:17;;;;;;;12.60;5.18;;;;;;;14.09;67.74;100450.81;4827686;29;20117;-71
2021/06/05 05:55:43;;;;;;;9.40;4.07;;;;;;;14.82;65.37;100450.69;4820499;29;20044;-71
2021/06/05 05:58:14;;;;;;;10.57;3.25;;;;;;;15.22;62.97;100452.25;4836417;29;20042;-71
2021/06/05 06:00:43;;;;;;;7.20;3.60;;;;;;;15.36;61.95;100446.41;4833841;29;20065;-71
2021/06/05 06:03:09;;;;;;;11.18;4.07;;;;;;;15.55;60.95;100456.88;4830574;29;20034;-71
2021/06/05 06:05:36;;;;;;;12.25;3.15;;;;;;;15.73;60.83;100452.94;4842277;29;20038;-71
2021/06/05 06:08:02;;;;;;;12.30;3.58;;;;;;;15.66;60.76;100453.16;4839370;29;20041;-71
2021/06/05 06:10:28;;;;;;;10.40;3.80;;;;;;;16.24;58.69;100461.50;4832957;29;20038;-71
2021/06/05 06:12:54;;;;;;;7.35;3.50;;;;;;;15.98;58.08;100456.97;4839595;29;20122;-73
2021/06/05 06:15:23;;;;;;;12.70;3.50;;;;;;;15.65;59.29;100456.97;4836029;29;20514;-72
2021/06/05 06:17:50;;;;;;;10.30;3.83;;;;;;;15.51;60.24;100460.09;4840884;29;20068;-72
2021/06/05 06:20:23;;;;;;;8.88;3.50;;;;;;;16.17;58.03;100458.19;4838008;29;20034;-72
2021/06/05 06:22:49;;;;;;;8.82;3.38;;;;;;;16.37;57.93;100465.63;4832005;29;20476;-72
2021/06/05 06:25:19;;;;;;;7.60;3.00;;;;;;;17.25;55.90;100465.16;4838105;29;20038;-72
2021/06/05 06:27:47;;;;;;;13.23;3.55;;;;;;;17.77;54.52;100459.75;4833381;29;20045;-72
2021/06/05 06:30:16;;;;;;;10.38;3.38;;;;;;;17.93;53.24;100460.53;4834310;29;20033;-71
2021/06/05 06:32:42;;;;;;;8.27;3.47;;;;;;;17.58;54.79;100462.19;4840692;29;20034;-72
2021/06/05 06:35:08;;;;;;;11.02;3.25;;;;;;;17.90;53.27;100461.94;4839918;29;20499;-71
2021/06/05 06:37:33;;;;;;;14.65;3.50;;;;;;;17.93;53.68;100457.81;4835592;29;20495;-72
2021/06/05 06:39:59;;;;;;;9.20;3.67;;;;;;;19.05;48.42;100454.25;4844936;29;20109;-72
2021/06/05 06:42:25;;;;;;;8.50;3.40;;;;;;;18.99;49.56;100454.25;4840674;29;20404;-72
2021/06/05 06:44:51;;;;;;;5.57;2.90;;;;;;;19.02;49.96;100455.59;4834319;29;20065;-72
2021/06/05 06:47:17;;;;;;;8.32;3.60;;;;;;;18.49;49.50;100458.81;4833938;29;20073;-72
2021/06/05 06:49:46;;;;;;;11.20;3.97;;;;;;;17.82;51.90;100455.09;4835137;29;20037;-72
2021/06/05 06:52:11;;;;;;;7.70;3.58;;;;;;;17.27;54.08;100452.91;4838060;29;20089;-71
2021/06/05 06:54:37;;;;;;;8.63;3.70;;;;;;;17.05;53.90;100444.16;4838798;29;20067;-71
2021/06/05 06:57:04;;;;;;;13.50;3.90;;;;;;;16.62;55.11;100457.88;4833653;29;20041;-71
2021/06/05 06:59:31;;;;;;;11.32;3.80;;;;;;;16.18;57.30;100453.56;4838724;29;20144;-71
2021/06/05 07:01:57;;;;;;;11.13;3.65;;;;;;;16.15;57.82;100454.91;4848374;29;20093;-71
2021/06/05 07:04:23;;;;;;;12.65;4.07;;;;;;;16.04;58.71;100451.28;4839545;29;20041;-71
2021/06/05 07:06:48;;;;;;;12.25;4.45;;;;;;;15.72;59.26;100452.13;4838854;29;20098;-71
2021/06/05 07:09:15;;;;;;;10.55;3.95;;;;;;;15.61;59.44;100453.13;4834343;29;20034;-71
2021/06/05 07:11:41;;;;;;;15.05;4.40;;;;;;;15.48;59.81;100457.06;4849534;29;20074;-71
2021/06/05 07:14:07;;;;;;;13.65;4.53;;;;;;;15.50;59.91;100460.34;4835449;29;20106;-71
2021/06/05 07:16:36;;;;;;;10.68;4.10;;;;;;;15.47;59.55;100455.44;4838067;29;20042;-71
2021/06/05 07:19:03;;;;;;;11.45;3.85;;;;;;;15.33;59.92;100452.34;4830117;29;20567;-71
2021/06/05 07:21:30;;;;;;;13.63;4.82;;;;;;;15.48;56.79;100459.78;4828258;29;20053;-71
2021/06/05 07:23:55;;;;;;;14.77;4.63;;;;;;;15.57;56.71;100465.59;4832193;29;20049;-71
2021/06/05 07:26:25;;;;;;;17.85;4.88;;;;;;;15.46;56.77;100454.63;4828500;29;20049;-74
2021/06/05 07:28:55;;;;;;;13.85;4.28;;;;;;;15.46;56.74;100461.94;4823756;29;20077;-74
2021/06/05 07:31:36;;;;;;;12.95;5.25;;;;;;;15.46;57.64;100454.63;4813398;29;20037;-74
2021/06/05 07:34:03;;;;;;;11.45;4.72;;;;;;;15.50;56.90;100450.31;4826731;29;20147;-74
2021/06/05 07:36:37;;;;;;;12.13;4.70;;;;;;;15.50;57.41;100457.63;4816985;29;20054;-74
2021/06/05 07:39:09;;;;;;;9.18;4.35;;;;;;;15.59;56.58;100458.81;4829950;29;20065;-74
2021/06/05 07:41:35;;;;;;;14.90;4.47;;;;;;;15.64;55.38;100455.31;4837681;29;20506;-74
2021/06/05 07:44:01;;;;;;;15.93;5.13;;;;;;;15.65;56.27;100463.19;4835810;29;20048;-73
2021/06/05 07:46:27;;;;;;;14.77;5.22;;;;;;;15.64;57.73;100455.31;4823909;29;20038;-74
2021/06/05 07:48:53;;;;;;;13.00;5.35;;;;;;;15.88;57.65;100455.00;4826671;29;20042;-74
2021/06/05 07:51:19;;;;;;;12.00;5.20;;;;;;;15.91;57.29;100460.75;4837327;29;20057;-74
2021/06/05 07:53:47;;;;;;;10.63;5.30;;;;;;;15.88;58.00;100463.94;4855168;29;20484;-74
2021/06/05 07:56:13;;;;;;;10.57;4.72;;;;;;;15.99;58.19;100462.13;4847577;29;20095;-74
2021/06/05 07:58:39;;;;;;;11.35;5.13;;;;;;;16.16;57.35;100459.25;4855191;29;20044;-73
2021/06/05 08:01:05;;;;;;;11.73;5.20;;;;;;;16.21;56.51;100453.88;4824414;29;20046;-74
2021/06/05 08:03:31;;;;;;;19.73;4.97;;;;;;;16.44;56.82;100456.41;4846291;29;20090;-74
2021/06/05 08:05:56;;;;;;;12.27;5.13;;;;;;;16.35;57.07;100453.38;4845008;29;20049;-74
2021/06/05 08:08:22;;;;;;;11.68;4.85;;;;;;;16.49;55.44;100448.28;4843513;29;20033;-73
2021/06/05 08:10:48;;;;;;;11.63;5.00;;;;;;;16.76;56.07;100455.47;4846580;29;20042;-73
2021/06/05 08:13:14;;;;;;;12.52;5.13;;;;;;;16.87;55.33;100457.16;4832631;29;20061;-73
2021/06/05 08:15:43;;;;;;;16.40;5.65;;;;;;;16.92;53.59;100449.00;4840429;29;20484;-73
2021/06/05 08:18:10;;;;;;;14.60;5.45;;;;;;;16.86;52.24;100457.41;4844637;29;20057;-73
2021/06/05 08:20:58;;;;;;;18.15;5.18;;;;;;;17.00;54.29;100458.56;4840970;29;20085;-74
2021/06/05 08:23:27;;;;;;;10.25;4.90;;;;;;;17.00;54.79;100447.69;4838985;29;20058;-73
2021/06/05 08:25:53;;;;;;;13.55;5.05;;;;;;;16.86;53.83;100436.47;4841767;29;20500;-76
2021/06/05 08:28:22;;;;;;;10.18;4.45;;;;;;;17.01;54.58;100449.31;4844866;29;20049;-75
2021/06/05 08:30:51;;;;;;;16.17;5.53;;;;;;;17.16;52.79;100445.00;4492076;29;9999762;-75
2021/06/05 08:33:17;;;;;;;8.68;4.82;;;;;;;17.30;52.04;100445.31;4834369;29;20034;-75
2021/06/05 08:35:44;;;;;;;12.05;5.43;;;;;;;17.44;50.49;100449.13;4834717;29;20094;-73
2021/06/05 08:38:12;;;;;;;10.25;5.28;;;;;;;17.49;50.48;100437.41;4834842;29;20045;-75
2021/06/05 08:41:07;;;;;;;8.25;4.95;;;;;;;17.58;49.72;100440.41;4832199;29;20034;-74
2021/06/05 08:43:47;;;;;;;12.75;4.63;;;;;;;17.57;50.57;100434.13;4834843;29;20460;-74
2021/06/05 08:46:17;;;;;;;17.13;4.97;;;;;;;17.84;51.03;100430.31;4830653;29;20045;-74
2021/06/05 08:48:42;;;;;;;11.98;4.93;;;;;;;17.93;49.56;100425.94;4832680;29;20145;-74
2021/06/05 08:51:20;;;;;;;8.15;4.72;;;;;;;17.91;48.60;100427.31;4825080;29;20499;-74
2021/06/05 08:53:46;;;;;;;8.65;4.65;;;;;;;18.01;49.95;100427.31;4828376;29;20553;-73
2021/06/05 08:56:18;;;;;;;12.20;4.72;;;;;;;18.25;49.68;100430.25;4836190;29;20042;-74
2021/06/05 08:58:51;;;;;;;9.90;4.35;;;;;;;18.44;49.78;100419.53;4830122;29;20038;-74
2021/06/05 09:01:22;;;;;;;15.40;5.20;;;;;;;18.58;48.35;100425.22;4834732;29;20054;-74
2021/06/05 09:03:59;;;;;;;12.32;4.95;;;;;;;18.57;48.78;100420.06;4833884;29;20125;-74
2021/06/05 09:06:53;;;;;;;9.45;5.68;;;;;;;18.24;48.93;100425.06;4827364;29;20043;-74
2021/06/05 09:09:31;;;;;;;11.02;4.20;;;;;;;18.15;49.05;100422.13;4836133;29;20038;-74
2021/06/05 09:11:59;;;;;;;11.73;4.30;;;;;;;18.43;48.52;100423.38;4833158;29;20110;-74
2021/06/05 09:14:25;;;;;;;10.80;4.03;;;;;;;18.40;47.67;100431.31;4836274;29;20167;-74
2021/06/05 09:16:52;;;;;;;4.28;2.80;;;;;;;18.51;46.41;100429.34;4834487;29;20034;-74
2021/06/05 09:19:33;;;;;;;8.00;3.40;;;;;;;18.46;47.30;100434.81;4830919;29;20045;-74
2021/06/05 09:22:07;;;;;;;6.10;3.22;;;;;;;18.54;45.53;100439.69;4837501;29;20054;-74
2021/06/05 09:24:44;;;;;;;5.40;3.03;;;;;;;18.26;46.27;100431.91;4834457;29;20034;-74
2021/06/05 09:27:16;;;;;;;7.25;3.72;;;;;;;18.36;48.03;100430.22;4836235;29;20050;-75
2021/06/05 09:30:00;;;;;;;11.50;3.90;;;;;;;18.22;48.77;100428.09;4830485;29;20034;-76
2021/06/05 09:32:27;;;;;;;12.82;3.63;;;;;;;18.29;47.82;100438.69;4837285;29;20038;-75
2021/06/05 09:35:16;;;;;;;8.02;3.40;;;;;;;18.23;46.40;100440.63;4834321;29;20088;-75
2021/06/05 09:37:47;;;;;;;4.75;2.72;;;;;;;18.44;46.59;100435.13;4825052;29;20475;-75
2021/06/05 09:40:19;;;;;;;8.70;3.10;;;;;;;18.67;45.21;100433.66;4847720;29;20408;-75
2021/06/05 09:43:16;;;;;;;8.23;2.42;;;;;;;18.78;44.72;100425.44;4844990;29;20061;-74
2021/06/05 09:46:05;;;;;;;7.30;2.65;;;;;;;19.06;43.56;100428.56;4819213;29;20081;-75
2021/06/05 09:48:36;;;;;;;8.32;2.60;;;;;;;18.84;42.93;100427.03;4832603;29;20037;-75
2021/06/05 09:51:24;;;;;;;9.57;2.33;;;;;;;18.95;43.07;100434.06;4838535;29;20041;-73
2021/06/05 09:54:03;;;;;;;11.60;3.33;;;;;;;18.65;45.21;100430.41;4800468;29;20041;-74
2021/06/05 09:56:34;;;;;;;9.30;3.13;;;;;;;18.67;45.26;100430.94;4825985;29;20050;-76
2021/06/05 09:59:16;;;;;;;5.47;2.47;;;;;;;18.66;45.11;100432.03;4838511;29;20121;-75
2021/06/05 10:02:00;;;;;;;6.85;2.00;;;;;;;18.87;43.65;100434.66;4837396;29;20117;-76
2021/06/05 10:04:28;;;;;;;4.07;2.50;;;;;;;19.21;44.72;100431.19;4839924;29;20049;-78
2021/06/05 10:06:57;;;;;;;15.02;3.50;;;;;;;19.35;43.46;100428.63;4831944;29;20042;-76
2021/06/05 10:09:26;;;;;;;9.73;3.72;;;;;;;19.15;44.29;100430.41;4836516;29;20053;-77
2021/06/05 10:11:52;;;;;;;10.15;3.85;;;;;;;19.32;43.32;100423.72;4839447;29;20511;-77
2021/06/05 10:14:21;;;;;;;8.82;3.63;;;;;;;19.42;44.04;100431.03;4853433;29;20121;-76
2021/06/05 10:16:57;;;;;;;7.60;3.38;;;;;;;19.47;44.48;100430.19;4834483;29;20044;-77
2021/06/05 10:19:36;;;;;;;8.50;3.72;;;;;;;19.65;42.70;100421.28;4827446;29;20178;-76
2021/06/05 10:22:02;;;;;;;9.98;3.40;;;;;;;19.56;43.01;100429.28;4836358;29;20768;-76
2021/06/05 10:24:36;;;;;;;6.47;3.10;;;;;;;19.68;42.44;100422.63;4835326;29;20046;-76
2021/06/05 10:27:16;;;;;;;8.93;3.53;;;;;;;19.72;44.00;100424.50;4844592;29;20065;-76
2021/06/05 10:29:48;;;;;;;8.85;3.40;;;;;;;19.65;42.59;100421.28;4834478;29;20070;-78
2021/06/05 10:32:20;;;;;;;7.88;3.30;;;;;;;19.49;43.33;100417.88;4838937;29;20049;-77
2021/06/05 10:35:22;;;;;;;8.48;3.42;;;;;;;19.40;44.76;100425.06;4833831;29;20449;-77
2021/06/05 10:37:48;;;;;;;7.40;2.92;;;;;;;19.11;42.67;100420.34;4829247;29;20377;-77
2021/06/05 10:40:25;;;;;;;7.07;3.03;;;;;;;19.62;43.17;100413.69;4819599;29;20059;-77
2021/06/05 10:42:54;;;;;;;7.65;2.40;;;;;;;19.41;40.71;100415.75;4825759;29;20120;-77
2021/06/05 10:45:30;;;;;;;9.38;2.58;;;;;;;19.28;42.45;100418.03;4819983;29;20038;-77
2021/06/05 10:48:06;;;;;;;10.35;2.70;;;;;;;19.57;41.92;100425.44;4831779;29;20045;-77
2021/06/05 10:50:42;;;;;;;5.10;2.13;;;;;;;19.61;39.12;100414.78;4819691;29;20094;-76
2021/06/05 10:53:29;;;;;;;6.22;2.25;;;;;;;19.77;40.01;100418.16;4839085;29;20037;-77
2021/06/05 10:55:59;;;;;;;7.10;2.30;;;;;;;19.80;40.36;100411.31;4834410;29;20224;-77
2021/06/05 10:58:33;;;;;;;7.13;2.42;;;;;;;19.98;41.05;100413.34;4837587;29;20411;-77
2021/06/05 11:01:06;;;;;;;7.63;2.15;;;;;;;20.40;40.72;100413.72;4828377;29;20058;-77
2021/06/05 11:03:32;;;;;;;4.80;2.30;;;;;;;20.56;38.90;100414.31;4499012;29;10000789;-77
2021/06/05 11:06:41;;;;;;;10.95;2.45;;;;;;;20.71;39.46;100407.00;4828914;29;20061;-77
2021/06/05 11:09:26;;;;;;;9.88;2.75;;;;;;;20.92;38.74;100407.59;4813642;29;20121;-77
2021/06/05 11:11:53;;;;;;;7.05;2.42;;;;;;;20.89;38.57;100408.97;4831318;29;21130;-76
2021/06/05 11:14:21;;;;;;;7.20;2.53;;;;;;;21.02;39.42;100396.47;4849114;29;20116;-77
2021/06/05 11:16:59;;;;;;;9.95;2.55;;;;;;;21.02;38.31;100401.13;4831786;29;20124;-76
2021/06/05 11:19:36;;;;;;;8.82;2.75;;;;;;;20.95;38.75;100403.41;4838044;29;20042;-76
2021/06/05 11:22:14;;;;;;;8.85;3.20;;;;;;;21.05;38.71;100397.78;4835405;29;20163;-77
2021/06/05 11:24:44;;;;;;;7.97;2.33;;;;;;;21.27;38.18;100397.19;4837393;29;20034;-76
2021/06/05 11:27:38;;;;;;;9.27;2.97;;;;;;;21.48;38.27;100402.31;4830650;29;20066;-76
2021/06/05 11:30:22;;;;;;;;;;;;;;;21.60;37.89;100397.19;4838737;29;20030;-76
2021/06/05 11:32:50;;;;;;;15.02;3.67;;;;;;;21.22;38.06;100391.78;4837762;29;20114;-76
2021/06/05 11:35:31;;;;;;;11.45;3.05;;;;;;;21.39;39.68;100383.03;4839518;29;20149;-76